Altoona, Pennsylvania
Current Conditions -  °F | °C
As of 12:53 AM on Friday 31 Oct 2014 (Local Time) from KAOO Reporting Station
NA  
Wind Chill:   Ceiling: NA
Heat Index:   Visibility: 10mi
Dew Point:   Wind: 3mph
Humidity: 86%   Direction: 220°SW
Pressure: 30.02"   Gusts: NA
Location:  40.51°N, 78.4°W
Report Text: KAOO 310453Z AUTO 22003KT 10SM 06/04 A3002 RMK AO2 SLP173 T00610039 400940044 $
Loading
Personal Weather Stations






























Interactive Weather Map
Tropical Storm Tracking
New forecast layout! Learn more

10-Day Weather Forecast

Advertisements
Track Severe Weather on mobile